sensor_id;sensor_type;location;lat;lon;timestamp;temperature;humidity
81800;DHT22;71195;52.528;5.704;2024-01-16T00:02:03;2.40;67.80
81800;DHT22;71195;52.528;5.704;2024-01-16T00:04:36;2.40;67.80
81800;DHT22;71195;52.528;5.704;2024-01-16T00:07:06;2.40;67.90
81800;DHT22;71195;52.528;5.704;2024-01-16T00:09:35;2.40;67.80
81800;DHT22;71195;52.528;5.704;2024-01-16T00:12:08;2.40;67.80
81800;DHT22;71195;52.528;5.704;2024-01-16T00:14:37;2.40;67.80
81800;DHT22;71195;52.528;5.704;2024-01-16T00:17:06;2.40;67.70
81800;DHT22;71195;52.528;5.704;2024-01-16T00:19:35;2.40;67.70
81800;DHT22;71195;52.528;5.704;2024-01-16T00:22:05;2.40;67.80
81800;DHT22;71195;52.528;5.704;2024-01-16T00:24:34;2.40;67.80
81800;DHT22;71195;52.528;5.704;2024-01-16T00:27:03;2.40;67.80
81800;DHT22;71195;52.528;5.704;2024-01-16T00:29:35;2.40;67.70
81800;DHT22;71195;52.528;5.704;2024-01-16T00:32:05;2.40;67.70
81800;DHT22;71195;52.528;5.704;2024-01-16T00:34:34;2.40;67.70
81800;DHT22;71195;52.528;5.704;2024-01-16T00:37:04;2.40;67.70
81800;DHT22;71195;52.528;5.704;2024-01-16T00:39:33;2.40;67.70
81800;DHT22;71195;52.528;5.704;2024-01-16T00:42:02;2.40;67.70
81800;DHT22;71195;52.528;5.704;2024-01-16T00:44:32;2.40;67.70
81800;DHT22;71195;52.528;5.704;2024-01-16T00:47:04;2.40;67.70
81800;DHT22;71195;52.528;5.704;2024-01-16T00:49:33;2.40;67.70
81800;DHT22;71195;52.528;5.704;2024-01-16T00:52:04;2.40;67.60
81800;DHT22;71195;52.528;5.704;2024-01-16T00:54:33;2.30;67.70
81800;DHT22;71195;52.528;5.704;2024-01-16T00:57:03;2.40;67.60
81800;DHT22;71195;52.528;5.704;2024-01-16T00:59:32;2.40;67.50
81800;DHT22;71195;52.528;5.704;2024-01-16T01:02:04;2.40;67.60
81800;DHT22;71195;52.528;5.704;2024-01-16T01:04:36;2.40;67.50
81800;DHT22;71195;52.528;5.704;2024-01-16T01:07:05;2.40;67.40
81800;DHT22;71195;52.528;5.704;2024-01-16T01:09:34;2.50;67.40
81800;DHT22;71195;52.528;5.704;2024-01-16T01:12:04;2.40;67.40
81800;DHT22;71195;52.528;5.704;2024-01-16T01:14:34;2.40;67.30
81800;DHT22;71195;52.528;5.704;2024-01-16T01:17:05;2.40;67.40
81800;DHT22;71195;52.528;5.704;2024-01-16T01:19:35;2.40;67.40
81800;DHT22;71195;52.528;5.704;2024-01-16T01:22:04;2.40;67.30
81800;DHT22;71195;52.528;5.704;2024-01-16T01:24:34;2.40;67.30
81800;DHT22;71195;52.528;5.704;2024-01-16T01:27:03;2.40;67.30
81800;DHT22;71195;52.528;5.704;2024-01-16T01:29:33;2.40;67.30
81800;DHT22;71195;52.528;5.704;2024-01-16T01:32:05;2.40;67.30
81800;DHT22;71195;52.528;5.704;2024-01-16T01:34:34;2.40;67.30
81800;DHT22;71195;52.528;5.704;2024-01-16T01:37:04;2.30;67.40
81800;DHT22;71195;52.528;5.704;2024-01-16T01:39:33;2.30;67.40
81800;DHT22;71195;52.528;5.704;2024-01-16T01:42:03;2.30;67.40
81800;DHT22;71195;52.528;5.704;2024-01-16T01:44:32;2.20;67.40
81800;DHT22;71195;52.528;5.704;2024-01-16T01:47:05;2.20;67.60
81800;DHT22;71195;52.528;5.704;2024-01-16T01:49:35;2.20;67.60
81800;DHT22;71195;52.528;5.704;2024-01-16T01:52:05;2.10;67.50
81800;DHT22;71195;52.528;5.704;2024-01-16T01:54:36;2.10;67.60
81800;DHT22;71195;52.528;5.704;2024-01-16T01:57:07;2.10;67.60
81800;DHT22;71195;52.528;5.704;2024-01-16T01:59:37;2.10;67.70
81800;DHT22;71195;52.528;5.704;2024-01-16T02:02:09;2.00;67.70
81800;DHT22;71195;52.528;5.704;2024-01-16T02:04:40;2.00;67.70
81800;DHT22;71195;52.528;5.704;2024-01-16T02:07:10;2.00;67.70
81800;DHT22;71195;52.528;5.704;2024-01-16T02:09:39;2.10;67.60
81800;DHT22;71195;52.528;5.704;2024-01-16T02:12:09;2.00;67.60
81800;DHT22;71195;52.528;5.704;2024-01-16T02:14:38;2.00;67.50
81800;DHT22;71195;52.528;5.704;2024-01-16T02:17:10;2.00;67.50
81800;DHT22;71195;52.528;5.704;2024-01-16T02:19:39;2.00;67.60
81800;DHT22;71195;52.528;5.704;2024-01-16T02:22:09;2.00;67.70
81800;DHT22;71195;52.528;5.704;2024-01-16T02:24:44;1.90;67.70
81800;DHT22;71195;52.528;5.704;2024-01-16T02:27:14;1.90;67.70
81800;DHT22;71195;52.528;5.704;2024-01-16T02:29:43;1.90;67.70
81800;DHT22;71195;52.528;5.704;2024-01-16T02:32:12;1.90;67.70
81800;DHT22;71195;52.528;5.704;2024-01-16T02:34:42;1.90;67.70
81800;DHT22;71195;52.528;5.704;2024-01-16T02:37:11;1.90;67.70
81800;DHT22;71195;52.528;5.704;2024-01-16T02:39:40;1.90;67.60
81800;DHT22;71195;52.528;5.704;2024-01-16T02:42:11;1.90;67.60
81800;DHT22;71195;52.528;5.704;2024-01-16T02:44:41;1.90;67.60
81800;DHT22;71195;52.528;5.704;2024-01-16T02:47:10;1.90;67.60
81800;DHT22;71195;52.528;5.704;2024-01-16T02:49:39;1.90;67.60
81800;DHT22;71195;52.528;5.704;2024-01-16T02:52:08;1.90;67.60
81800;DHT22;71195;52.528;5.704;2024-01-16T02:54:37;1.80;67.50
81800;DHT22;71195;52.528;5.704;2024-01-16T02:57:06;1.80;67.60
81800;DHT22;71195;52.528;5.704;2024-01-16T02:59:38;1.80;67.50
81800;DHT22;71195;52.528;5.704;2024-01-16T03:02:07;1.80;67.60
81800;DHT22;71195;52.528;5.704;2024-01-16T03:04:37;1.80;67.50
81800;DHT22;71195;52.528;5.704;2024-01-16T03:07:06;1.80;67.50
81800;DHT22;71195;52.528;5.704;2024-01-16T03:09:35;1.90;67.40
81800;DHT22;71195;52.528;5.704;2024-01-16T03:12:05;1.90;67.30
81800;DHT22;71195;52.528;5.704;2024-01-16T03:14:35;1.90;67.30
81800;DHT22;71195;52.528;5.704;2024-01-16T03:17:07;1.90;67.30
81800;DHT22;71195;52.528;5.704;2024-01-16T03:19:37;1.80;67.40
81800;DHT22;71195;52.528;5.704;2024-01-16T03:22:06;1.80;67.50
81800;DHT22;71195;52.528;5.704;2024-01-16T03:24:35;1.80;67.50
81800;DHT22;71195;52.528;5.704;2024-01-16T03:27:04;1.80;67.50
81800;DHT22;71195;52.528;5.704;2024-01-16T03:29:33;1.80;67.60
81800;DHT22;71195;52.528;5.704;2024-01-16T03:32:03;1.80;67.60
81800;DHT22;71195;52.528;5.704;2024-01-16T03:34:35;1.80;67.60
81800;DHT22;71195;52.528;5.704;2024-01-16T03:37:04;1.80;67.60
81800;DHT22;71195;52.528;5.704;2024-01-16T03:39:33;1.80;67.50
81800;DHT22;71195;52.528;5.704;2024-01-16T03:42:03;1.90;67.50
81800;DHT22;71195;52.528;5.704;2024-01-16T03:44:32;1.90;67.40
81800;DHT22;71195;52.528;5.704;2024-01-16T03:47:01;1.90;67.40
81800;DHT22;71195;52.528;5.704;2024-01-16T03:49:30;1.90;67.40
81800;DHT22;71195;52.528;5.704;2024-01-16T03:52:02;1.90;67.40
81800;DHT22;71195;52.528;5.704;2024-01-16T03:54:31;1.80;67.50
81800;DHT22;71195;52.528;5.704;2024-01-16T03:57:00;1.80;67.50
81800;DHT22;71195;52.528;5.704;2024-01-16T03:59:29;1.90;67.50
81800;DHT22;71195;52.528;5.704;2024-01-16T04:01:58;1.90;67.40
81800;DHT22;71195;52.528;5.704;2024-01-16T04:04:29;1.90;67.50
81800;DHT22;71195;52.528;5.704;2024-01-16T04:07:01;1.80;67.50
81800;DHT22;71195;52.528;5.704;2024-01-16T04:09:30;1.90;67.60
81800;DHT22;71195;52.528;5.704;2024-01-16T04:11:59;1.90;67.50
81800;DHT22;71195;52.528;5.704;2024-01-16T04:14:28;1.90;67.50
81800;DHT22;71195;52.528;5.704;2024-01-16T04:16:57;1.90;67.50
81800;DHT22;71195;52.528;5.704;2024-01-16T04:19:26;1.90;67.50
81800;DHT22;71195;52.528;5.704;2024-01-16T04:22:02;1.90;67.50
81800;DHT22;71195;52.528;5.704;2024-01-16T04:24:32;1.90;67.60
81800;DHT22;71195;52.528;5.704;2024-01-16T04:27:01;1.90;67.50
81800;DHT22;71195;52.528;5.704;2024-01-16T04:29:30;1.90;67.50
81800;DHT22;71195;52.528;5.704;2024-01-16T04:31:59;1.90;67.60
81800;DHT22;71195;52.528;5.704;2024-01-16T04:34:29;1.90;67.60
81800;DHT22;71195;52.528;5.704;2024-01-16T04:36:58;1.90;67.60
81800;DHT22;71195;52.528;5.704;2024-01-16T04:39:30;1.90;67.60
81800;DHT22;71195;52.528;5.704;2024-01-16T04:41:59;1.90;67.60
81800;DHT22;71195;52.528;5.704;2024-01-16T04:44:28;1.90;67.70
81800;DHT22;71195;52.528;5.704;2024-01-16T04:46:57;1.90;67.70
81800;DHT22;71195;52.528;5.704;2024-01-16T04:49:26;1.90;67.70
81800;DHT22;71195;52.528;5.704;2024-01-16T04:51:56;1.90;67.70
81800;DHT22;71195;52.528;5.704;2024-01-16T04:54:25;1.90;67.70
81800;DHT22;71195;52.528;5.704;2024-01-16T04:56:56;1.90;67.70
81800;DHT22;71195;52.528;5.704;2024-01-16T04:59:25;2.00;67.70
81800;DHT22;71195;52.528;5.704;2024-01-16T05:01:56;2.00;67.70
81800;DHT22;71195;52.528;5.704;2024-01-16T05:04:25;2.00;67.80
81800;DHT22;71195;52.528;5.704;2024-01-16T05:06:55;2.00;67.80
81800;DHT22;71195;52.528;5.704;2024-01-16T05:09:24;2.00;67.70
81800;DHT22;71195;52.528;5.704;2024-01-16T05:11:55;2.00;67.80
81800;DHT22;71195;52.528;5.704;2024-01-16T05:14:25;2.00;67.80
81800;DHT22;71195;52.528;5.704;2024-01-16T05:16:54;2.00;67.80
81800;DHT22;71195;52.528;5.704;2024-01-16T05:19:23;2.00;67.80
81800;DHT22;71195;52.528;5.704;2024-01-16T05:21:53;2.00;67.80
81800;DHT22;71195;52.528;5.704;2024-01-16T05:24:22;2.00;67.90
81800;DHT22;71195;52.528;5.704;2024-01-16T05:26:51;2.00;67.90
81800;DHT22;71195;52.528;5.704;2024-01-16T05:29:23;2.00;68.00
81800;DHT22;71195;52.528;5.704;2024-01-16T05:31:53;2.00;68.00
81800;DHT22;71195;52.528;5.704;2024-01-16T05:34:22;2.10;67.80
81800;DHT22;71195;52.528;5.704;2024-01-16T05:36:52;2.10;67.80
81800;DHT22;71195;52.528;5.704;2024-01-16T05:39:21;2.10;67.90
81800;DHT22;71195;52.528;5.704;2024-01-16T05:41:50;2.10;67.80
81800;DHT22;71195;52.528;5.704;2024-01-16T05:44:19;2.10;67.90
81800;DHT22;71195;52.528;5.704;2024-01-16T05:46:51;2.10;67.90
81800;DHT22;71195;52.528;5.704;2024-01-16T05:49:20;2.10;68.00
81800;DHT22;71195;52.528;5.704;2024-01-16T05:51:49;2.10;67.90
81800;DHT22;71195;52.528;5.704;2024-01-16T05:54:18;2.10;67.90
81800;DHT22;71195;52.528;5.704;2024-01-16T05:56:47;2.10;67.90
81800;DHT22;71195;52.528;5.704;2024-01-16T05:59:16;2.10;68.00
81800;DHT22;71195;52.528;5.704;2024-01-16T06:01:51;2.10;68.00
81800;DHT22;71195;52.528;5.704;2024-01-16T06:04:20;2.10;68.00
81800;DHT22;71195;52.528;5.704;2024-01-16T06:06:49;2.10;67.90
81800;DHT22;71195;52.528;5.704;2024-01-16T06:09:15;2.10;68.10
81800;DHT22;71195;52.528;5.704;2024-01-16T06:11:45;2.10;68.10
81800;DHT22;71195;52.528;5.704;2024-01-16T06:14:14;2.10;68.20
81800;DHT22;71195;52.528;5.704;2024-01-16T06:16:50;2.10;68.10
81800;DHT22;71195;52.528;5.704;2024-01-16T06:19:19;2.10;68.20
81800;DHT22;71195;52.528;5.704;2024-01-16T06:21:49;2.10;68.20
81800;DHT22;71195;52.528;5.704;2024-01-16T06:24:18;2.10;68.20
81800;DHT22;71195;52.528;5.704;2024-01-16T06:26:47;2.10;68.20
81800;DHT22;71195;52.528;5.704;2024-01-16T06:29:16;2.10;68.20
81800;DHT22;71195;52.528;5.704;2024-01-16T06:31:45;2.10;68.20
81800;DHT22;71195;52.528;5.704;2024-01-16T06:34:17;2.10;68.20
81800;DHT22;71195;52.528;5.704;2024-01-16T06:36:46;2.10;68.30
81800;DHT22;71195;52.528;5.704;2024-01-16T06:39:15;2.10;68.20
81800;DHT22;71195;52.528;5.704;2024-01-16T06:41:44;2.10;68.20
81800;DHT22;71195;52.528;5.704;2024-01-16T06:44:14;2.10;68.30
81800;DHT22;71195;52.528;5.704;2024-01-16T06:46:43;2.10;68.30
81800;DHT22;71195;52.528;5.704;2024-01-16T06:49:12;2.10;68.20
81800;DHT22;71195;52.528;5.704;2024-01-16T06:51:44;2.10;68.30
81800;DHT22;71195;52.528;5.704;2024-01-16T06:54:13;2.10;68.30
81800;DHT22;71195;52.528;5.704;2024-01-16T06:56:42;2.10;68.30
81800;DHT22;71195;52.528;5.704;2024-01-16T06:59:12;2.10;68.40
81800;DHT22;71195;52.528;5.704;2024-01-16T07:01:42;2.10;68.40
81800;DHT22;71195;52.528;5.704;2024-01-16T07:04:11;2.10;68.40
81800;DHT22;71195;52.528;5.704;2024-01-16T07:06:40;2.10;68.40
81800;DHT22;71195;52.528;5.704;2024-01-16T07:09:12;2.10;68.50
81800;DHT22;71195;52.528;5.704;2024-01-16T07:11:42;2.10;68.50
81800;DHT22;71195;52.528;5.704;2024-01-16T07:14:12;2.10;68.40
81800;DHT22;71195;52.528;5.704;2024-01-16T07:16:41;2.10;68.50
81800;DHT22;71195;52.528;5.704;2024-01-16T07:19:10;2.10;68.40
81800;DHT22;71195;52.528;5.704;2024-01-16T07:21:39;2.10;68.40
81800;DHT22;71195;52.528;5.704;2024-01-16T07:24:08;2.10;68.50
81800;DHT22;71195;52.528;5.704;2024-01-16T07:26:41;2.10;68.50
81800;DHT22;71195;52.528;5.704;2024-01-16T07:29:10;2.10;68.40
81800;DHT22;71195;52.528;5.704;2024-01-16T07:31:39;2.10;68.50
81800;DHT22;71195;52.528;5.704;2024-01-16T07:34:08;2.20;68.50
81800;DHT22;71195;52.528;5.704;2024-01-16T07:36:37;2.20;68.40
81800;DHT22;71195;52.528;5.704;2024-01-16T07:39:07;2.20;68.40
81800;DHT22;71195;52.528;5.704;2024-01-16T07:41:36;2.20;68.40
81800;DHT22;71195;52.528;5.704;2024-01-16T07:44:07;2.20;68.50
81800;DHT22;71195;52.528;5.704;2024-01-16T07:46:36;2.20;68.50
81800;DHT22;71195;52.528;5.704;2024-01-16T07:49:06;2.20;68.50
81800;DHT22;71195;52.528;5.704;2024-01-16T07:51:35;2.20;68.50
81800;DHT22;71195;52.528;5.704;2024-01-16T07:54:06;2.20;68.50
81800;DHT22;71195;52.528;5.704;2024-01-16T07:56:36;2.20;68.50
81800;DHT22;71195;52.528;5.704;2024-01-16T07:59:08;2.20;68.40
81800;DHT22;71195;52.528;5.704;2024-01-16T08:01:37;2.30;68.40
81800;DHT22;71195;52.528;5.704;2024-01-16T08:04:06;2.30;68.30
81800;DHT22;71195;52.528;5.704;2024-01-16T08:06:35;2.30;68.30
81800;DHT22;71195;52.528;5.704;2024-01-16T08:09:05;2.30;68.20
81800;DHT22;71195;52.528;5.704;2024-01-16T08:11:34;2.40;68.20
81800;DHT22;71195;52.528;5.704;2024-01-16T08:14:03;2.40;68.20
81800;DHT22;71195;52.528;5.704;2024-01-16T08:16:35;2.40;68.20
81800;DHT22;71195;52.528;5.704;2024-01-16T08:19:04;2.40;68.30
81800;DHT22;71195;52.528;5.704;2024-01-16T08:21:33;2.40;68.30
81800;DHT22;71195;52.528;5.704;2024-01-16T08:24:03;2.40;68.30
81800;DHT22;71195;52.528;5.704;2024-01-16T08:26:32;2.40;68.30
81800;DHT22;71195;52.528;5.704;2024-01-16T08:29:01;2.40;68.40
81800;DHT22;71195;52.528;5.704;2024-01-16T08:31:31;2.30;68.40
81800;DHT22;71195;52.528;5.704;2024-01-16T08:34:03;2.40;68.50
81800;DHT22;71195;52.528;5.704;2024-01-16T08:36:32;2.30;68.50
81800;DHT22;71195;52.528;5.704;2024-01-16T08:39:01;2.40;68.40
81800;DHT22;71195;52.528;5.704;2024-01-16T08:41:31;2.40;68.40
81800;DHT22;71195;52.528;5.704;2024-01-16T08:44:01;2.50;68.40
81800;DHT22;71195;52.528;5.704;2024-01-16T08:46:30;2.50;68.30
81800;DHT22;71195;52.528;5.704;2024-01-16T08:49:02;2.50;68.40
81800;DHT22;71195;52.528;5.704;2024-01-16T08:51:31;2.50;68.30
81800;DHT22;71195;52.528;5.704;2024-01-16T08:54:00;2.50;68.30
81800;DHT22;71195;52.528;5.704;2024-01-16T08:56:29;2.50;68.40
81800;DHT22;71195;52.528;5.704;2024-01-16T08:58:58;2.60;68.40
81800;DHT22;71195;52.528;5.704;2024-01-16T09:01:27;2.50;68.40
81800;DHT22;71195;52.528;5.704;2024-01-16T09:03:56;2.60;68.40
81800;DHT22;71195;52.528;5.704;2024-01-16T09:06:28;2.60;68.40
81800;DHT22;71195;52.528;5.704;2024-01-16T09:08:57;2.60;68.50
81800;DHT22;71195;52.528;5.704;2024-01-16T09:11:26;2.50;68.40
81800;DHT22;71195;52.528;5.704;2024-01-16T09:13:55;2.50;68.50
81800;DHT22;71195;52.528;5.704;2024-01-16T09:16:24;2.60;68.40
81800;DHT22;71195;52.528;5.704;2024-01-16T09:18:54;2.50;68.50
81800;DHT22;71195;52.528;5.704;2024-01-16T09:21:23;2.60;68.50
81800;DHT22;71195;52.528;5.704;2024-01-16T09:23:55;2.50;68.60
81800;DHT22;71195;52.528;5.704;2024-01-16T09:26:24;2.60;68.70
81800;DHT22;71195;52.528;5.704;2024-01-16T09:28:54;2.50;68.70
81800;DHT22;71195;52.528;5.704;2024-01-16T09:31:23;2.60;68.70
81800;DHT22;71195;52.528;5.704;2024-01-16T09:33:52;2.60;68.70
81800;DHT22;71195;52.528;5.704;2024-01-16T09:36:21;2.60;68.80
81800;DHT22;71195;52.528;5.704;2024-01-16T09:38:50;2.70;68.70
81800;DHT22;71195;52.528;5.704;2024-01-16T09:41:22;2.70;68.60
81800;DHT22;71195;52.528;5.704;2024-01-16T09:43:52;2.70;68.60
81800;DHT22;71195;52.528;5.704;2024-01-16T09:46:22;2.80;68.60
81800;DHT22;71195;52.528;5.704;2024-01-16T09:48:54;2.80;68.50
81800;DHT22;71195;52.528;5.704;2024-01-16T09:51:24;2.80;68.60
81800;DHT22;71195;52.528;5.704;2024-01-16T09:53:53;2.80;68.60
81800;DHT22;71195;52.528;5.704;2024-01-16T09:56:25;2.80;68.60
81800;DHT22;71195;52.528;5.704;2024-01-16T09:59:00;2.90;68.50
81800;DHT22;71195;52.528;5.704;2024-01-16T10:01:33;2.90;68.50
81800;DHT22;71195;52.528;5.704;2024-01-16T10:04:02;2.90;68.50
81800;DHT22;71195;52.528;5.704;2024-01-16T10:06:33;2.90;68.40
81800;DHT22;71195;52.528;5.704;2024-01-16T10:09:02;3.00;68.50
81800;DHT22;71195;52.528;5.704;2024-01-16T10:11:36;3.00;68.30
81800;DHT22;71195;52.528;5.704;2024-01-16T10:14:05;3.00;68.30
81800;DHT22;71195;52.528;5.704;2024-01-16T10:16:56;3.00;68.40
81800;DHT22;71195;52.528;5.704;2024-01-16T10:19:29;3.10;68.30
81800;DHT22;71195;52.528;5.704;2024-01-16T10:22:02;3.00;68.30
81800;DHT22;71195;52.528;5.704;2024-01-16T10:24:32;3.00;68.30
81800;DHT22;71195;52.528;5.704;2024-01-16T10:27:04;3.00;68.50
81800;DHT22;71195;52.528;5.704;2024-01-16T10:29:34;3.00;68.40
81800;DHT22;71195;52.528;5.704;2024-01-16T10:32:03;3.10;68.40
81800;DHT22;71195;52.528;5.704;2024-01-16T10:34:37;3.10;68.30
81800;DHT22;71195;52.528;5.704;2024-01-16T10:37:06;3.10;68.30
81800;DHT22;71195;52.528;5.704;2024-01-16T10:39:36;3.10;68.30
81800;DHT22;71195;52.528;5.704;2024-01-16T10:42:15;3.10;68.30
81800;DHT22;71195;52.528;5.704;2024-01-16T10:44:53;3.10;68.20
81800;DHT22;71195;52.528;5.704;2024-01-16T10:47:23;3.10;68.30
81800;DHT22;71195;52.528;5.704;2024-01-16T10:49:52;3.10;68.40
81800;DHT22;71195;52.528;5.704;2024-01-16T10:52:23;3.20;68.20
81800;DHT22;71195;52.528;5.704;2024-01-16T10:54:57;3.20;68.30
81800;DHT22;71195;52.528;5.704;2024-01-16T10:57:34;3.30;68.20
81800;DHT22;71195;52.528;5.704;2024-01-16T11:00:08;3.30;68.20
81800;DHT22;71195;52.528;5.704;2024-01-16T11:02:49;3.30;68.00
81800;DHT22;71195;52.528;5.704;2024-01-16T11:05:19;3.40;68.00
81800;DHT22;71195;52.528;5.704;2024-01-16T11:07:50;3.40;67.90
81800;DHT22;71195;52.528;5.704;2024-01-16T11:10:20;3.40;67.90
81800;DHT22;71195;52.528;5.704;2024-01-16T11:12:54;3.40;67.90
81800;DHT22;71195;52.528;5.704;2024-01-16T11:15:25;3.40;67.90
81800;DHT22;71195;52.528;5.704;2024-01-16T11:17:56;3.40;68.00
81800;DHT22;71195;52.528;5.704;2024-01-16T11:20:26;3.50;67.90
81800;DHT22;71195;52.528;5.704;2024-01-16T11:22:57;3.50;67.90
81800;DHT22;71195;52.528;5.704;2024-01-16T11:25:31;3.50;67.90
81800;DHT22;71195;52.528;5.704;2024-01-16T11:28:13;3.60;67.60
81800;DHT22;71195;52.528;5.704;2024-01-16T11:30:43;3.60;67.60
81800;DHT22;71195;52.528;5.704;2024-01-16T11:39:19;3.70;67.50
81800;DHT22;71195;52.528;5.704;2024-01-16T11:41:55;3.70;67.50
81800;DHT22;71195;52.528;5.704;2024-01-16T11:44:45;3.70;67.50
81800;DHT22;71195;52.528;5.704;2024-01-16T11:47:17;3.70;67.40
81800;DHT22;71195;52.528;5.704;2024-01-16T11:49:47;3.70;67.40
81800;DHT22;71195;52.528;5.704;2024-01-16T11:52:39;3.70;67.50
81800;DHT22;71195;52.528;5.704;2024-01-16T11:55:25;3.70;67.30
81800;DHT22;71195;52.528;5.704;2024-01-16T11:58:08;3.80;67.30
81800;DHT22;71195;52.528;5.704;2024-01-16T12:00:45;3.90;67.20
81800;DHT22;71195;52.528;5.704;2024-01-16T12:03:19;3.90;67.20
81800;DHT22;71195;52.528;5.704;2024-01-16T12:05:55;3.90;67.10
81800;DHT22;71195;52.528;5.704;2024-01-16T12:08:25;3.90;67.00
81800;DHT22;71195;52.528;5.704;2024-01-16T12:10:54;4.00;67.00
81800;DHT22;71195;52.528;5.704;2024-01-16T12:13:24;4.00;66.90
81800;DHT22;71195;52.528;5.704;2024-01-16T12:16:02;4.00;66.80
81800;DHT22;71195;52.528;5.704;2024-01-16T12:18:33;4.00;66.80
81800;DHT22;71195;52.528;5.704;2024-01-16T12:21:08;4.00;66.90
81800;DHT22;71195;52.528;5.704;2024-01-16T12:23:39;3.90;66.80
81800;DHT22;71195;52.528;5.704;2024-01-16T12:26:08;3.90;66.90
81800;DHT22;71195;52.528;5.704;2024-01-16T12:28:37;3.90;66.90
81800;DHT22;71195;52.528;5.704;2024-01-16T12:31:09;3.90;66.90
81800;DHT22;71195;52.528;5.704;2024-01-16T12:33:39;3.90;67.00
81800;DHT22;71195;52.528;5.704;2024-01-16T12:36:08;3.90;66.80
81800;DHT22;71195;52.528;5.704;2024-01-16T12:38:37;3.90;66.80
81800;DHT22;71195;52.528;5.704;2024-01-16T12:41:08;3.90;66.80
81800;DHT22;71195;52.528;5.704;2024-01-16T12:43:38;3.90;66.80
81800;DHT22;71195;52.528;5.704;2024-01-16T12:46:11;4.00;66.60
81800;DHT22;71195;52.528;5.704;2024-01-16T12:48:41;4.00;66.60
81800;DHT22;71195;52.528;5.704;2024-01-16T12:51:10;3.90;66.60
81800;DHT22;71195;52.528;5.704;2024-01-16T12:53:39;4.00;66.50
81800;DHT22;71195;52.528;5.704;2024-01-16T12:56:08;4.00;66.40
81800;DHT22;71195;52.528;5.704;2024-01-16T12:58:38;4.00;66.30
81800;DHT22;71195;52.528;5.704;2024-01-16T13:01:27;4.10;66.30
81800;DHT22;71195;52.528;5.704;2024-01-16T13:04:03;4.20;66.10
81800;DHT22;71195;52.528;5.704;2024-01-16T13:06:33;4.10;66.10
81800;DHT22;71195;52.528;5.704;2024-01-16T13:09:06;4.20;66.00
81800;DHT22;71195;52.528;5.704;2024-01-16T13:11:49;4.20;66.00
81800;DHT22;71195;52.528;5.704;2024-01-16T13:14:21;4.20;66.00
81800;DHT22;71195;52.528;5.704;2024-01-16T13:16:53;4.30;65.90
81800;DHT22;71195;52.528;5.704;2024-01-16T13:19:24;4.40;65.70
81800;DHT22;71195;52.528;5.704;2024-01-16T13:21:55;4.50;65.50
81800;DHT22;71195;52.528;5.704;2024-01-16T13:24:24;4.60;65.30
81800;DHT22;71195;52.528;5.704;2024-01-16T13:26:53;4.70;65.20
81800;DHT22;71195;52.528;5.704;2024-01-16T13:29:23;4.90;65.00
81800;DHT22;71195;52.528;5.704;2024-01-16T13:31:55;5.00;64.90
81800;DHT22;71195;52.528;5.704;2024-01-16T13:34:24;5.00;64.70
81800;DHT22;71195;52.528;5.704;2024-01-16T13:36:55;5.00;64.70
81800;DHT22;71195;52.528;5.704;2024-01-16T13:39:26;5.10;64.70
81800;DHT22;71195;52.528;5.704;2024-01-16T13:41:58;5.20;64.60
81800;DHT22;71195;52.528;5.704;2024-01-16T13:44:31;5.30;64.60
81800;DHT22;71195;52.528;5.704;2024-01-16T13:47:04;5.20;64.60
81800;DHT22;71195;52.528;5.704;2024-01-16T13:49:34;5.10;64.60
81800;DHT22;71195;52.528;5.704;2024-01-16T13:52:04;5.10;64.70
81800;DHT22;71195;52.528;5.704;2024-01-16T13:54:36;5.00;64.80
81800;DHT22;71195;52.528;5.704;2024-01-16T13:57:07;5.00;64.90
81800;DHT22;71195;52.528;5.704;2024-01-16T13:59:37;4.90;65.00
81800;DHT22;71195;52.528;5.704;2024-01-16T14:02:09;4.80;65.00
81800;DHT22;71195;52.528;5.704;2024-01-16T14:04:39;4.70;65.10
81800;DHT22;71195;52.528;5.704;2024-01-16T14:07:08;4.70;65.20
81800;DHT22;71195;52.528;5.704;2024-01-16T14:09:37;4.60;65.30
81800;DHT22;71195;52.528;5.704;2024-01-16T14:12:07;4.50;65.30
81800;DHT22;71195;52.528;5.704;2024-01-16T14:14:39;4.60;65.20
81800;DHT22;71195;52.528;5.704;2024-01-16T14:17:12;4.70;65.10
81800;DHT22;71195;52.528;5.704;2024-01-16T14:19:41;4.70;65.10
81800;DHT22;71195;52.528;5.704;2024-01-16T14:22:10;4.90;64.90
81800;DHT22;71195;52.528;5.704;2024-01-16T14:24:40;5.00;64.80
81800;DHT22;71195;52.528;5.704;2024-01-16T14:27:09;5.00;64.70
81800;DHT22;71195;52.528;5.704;2024-01-16T14:29:38;5.10;64.50
81800;DHT22;71195;52.528;5.704;2024-01-16T14:32:11;5.20;64.30
81800;DHT22;71195;52.528;5.704;2024-01-16T14:34:40;5.30;64.30
81800;DHT22;71195;52.528;5.704;2024-01-16T14:37:10;5.30;64.20
81800;DHT22;71195;52.528;5.704;2024-01-16T14:39:39;5.30;64.20
81800;DHT22;71195;52.528;5.704;2024-01-16T14:42:09;5.20;64.20
81800;DHT22;71195;52.528;5.704;2024-01-16T14:44:39;5.10;64.30
81800;DHT22;71195;52.528;5.704;2024-01-16T14:47:11;5.00;64.50
81800;DHT22;71195;52.528;5.704;2024-01-16T14:49:40;4.90;64.50
81800;DHT22;71195;52.528;5.704;2024-01-16T14:52:09;4.80;64.60
81800;DHT22;71195;52.528;5.704;2024-01-16T14:54:39;4.70;64.70
81800;DHT22;71195;52.528;5.704;2024-01-16T14:57:08;4.70;64.70
81800;DHT22;71195;52.528;5.704;2024-01-16T14:59:40;4.70;64.70
81800;DHT22;71195;52.528;5.704;2024-01-16T15:02:14;4.50;64.80
81800;DHT22;71195;52.528;5.704;2024-01-16T15:04:43;4.50;64.70
81800;DHT22;71195;52.528;5.704;2024-01-16T15:07:12;4.40;64.70
81800;DHT22;71195;52.528;5.704;2024-01-16T15:09:42;4.30;64.90
81800;DHT22;71195;52.528;5.704;2024-01-16T15:12:12;4.20;65.00
81800;DHT22;71195;52.528;5.704;2024-01-16T15:14:41;4.20;65.00
81800;DHT22;71195;52.528;5.704;2024-01-16T15:17:13;4.20;64.90
81800;DHT22;71195;52.528;5.704;2024-01-16T15:19:42;4.10;64.80
81800;DHT22;71195;52.528;5.704;2024-01-16T15:22:11;4.10;64.90
81800;DHT22;71195;52.528;5.704;2024-01-16T15:24:40;4.10;64.80
81800;DHT22;71195;52.528;5.704;2024-01-16T15:27:10;4.00;64.80
81800;DHT22;71195;52.528;5.704;2024-01-16T15:29:39;3.90;64.80
81800;DHT22;71195;52.528;5.704;2024-01-16T15:32:08;3.90;64.80
81800;DHT22;71195;52.528;5.704;2024-01-16T15:34:40;3.90;64.70
81800;DHT22;71195;52.528;5.704;2024-01-16T15:37:10;3.80;64.80
81800;DHT22;71195;52.528;5.704;2024-01-16T15:39:39;3.70;64.70
81800;DHT22;71195;52.528;5.704;2024-01-16T15:42:08;3.70;64.70
81800;DHT22;71195;52.528;5.704;2024-01-16T15:44:38;3.70;64.70
81800;DHT22;71195;52.528;5.704;2024-01-16T15:47:07;3.60;64.60
81800;DHT22;71195;52.528;5.704;2024-01-16T15:49:36;3.50;64.60
81800;DHT22;71195;52.528;5.704;2024-01-16T15:52:08;3.50;64.60
81800;DHT22;71195;52.528;5.704;2024-01-16T15:54:38;3.50;64.60
81800;DHT22;71195;52.528;5.704;2024-01-16T15:57:08;3.40;64.60
81800;DHT22;71195;52.528;5.704;2024-01-16T15:59:37;3.40;64.60
81800;DHT22;71195;52.528;5.704;2024-01-16T16:02:08;3.30;64.40
81800;DHT22;71195;52.528;5.704;2024-01-16T16:04:37;3.30;64.40
81800;DHT22;71195;52.528;5.704;2024-01-16T16:07:09;3.30;64.30
81800;DHT22;71195;52.528;5.704;2024-01-16T16:09:39;3.30;64.30
81800;DHT22;71195;52.528;5.704;2024-01-16T16:12:09;3.30;64.30